Time;durP1;ratioP1;P1;durP2;ratioP2;P2;SDS_P1;SDS_P2;PMS_P1;PMS_P2;Temp;Humidity;BMP_temperature;BMP_pressure;BME280_temperature;BME280_humidity;BME280_pressure;Samples;Min_cycle;Max_cycle;Signal;HPM_P1;HPM_P2
2023/12/01 00:00:11;;;;;;;22.25;20.23;;;;;;;5.72;100.00;93812.53;5026173;28;20036;-67
2023/12/01 00:02:36;;;;;;;29.00;26.10;;;;;;;5.66;100.00;93810.53;5038578;28;20101;-67
2023/12/01 00:05:01;;;;;;;14.45;12.98;;;;;;;5.61;100.00;93810.19;5024853;28;20116;-67
2023/12/01 00:07:27;;;;;;;16.25;13.02;;;;;;;5.61;100.00;93802.34;5017802;28;20048;-67
2023/12/01 00:09:52;;;;;;;15.30;13.98;;;;;;;5.63;100.00;93805.63;5030953;28;20045;-67
2023/12/01 00:12:18;;;;;;;48.67;37.05;;;;;;;5.72;100.00;93791.63;5023426;28;20034;-67
2023/12/01 00:14:43;;;;;;;14.40;13.00;;;;;;;5.74;100.00;93788.84;5042405;28;20033;-67
2023/12/01 00:17:09;;;;;;;24.10;19.90;;;;;;;5.72;100.00;93812.53;5019869;28;20130;-67
2023/12/01 00:19:34;;;;;;;14.75;13.35;;;;;;;5.71;100.00;93808.28;5025890;28;20494;-67
2023/12/01 00:22:00;;;;;;;12.13;11.13;;;;;;;5.69;100.00;93809.41;5023907;28;20478;-67
2023/12/01 00:24:25;;;;;;;15.77;14.10;;;;;;;5.70;100.00;93793.59;5025928;28;20037;-67
2023/12/01 00:26:50;;;;;;;13.93;12.82;;;;;;;5.72;100.00;93793.41;5035710;28;20032;-67
2023/12/01 00:29:16;;;;;;;10.38;9.52;;;;;;;5.68;100.00;93803.38;5022873;28;20029;-67
2023/12/01 00:31:41;;;;;;;10.43;9.63;;;;;;;5.67;100.00;93795.69;5021387;28;20100;-67
2023/12/01 00:34:07;;;;;;;9.57;8.77;;;;;;;5.66;100.00;93794.06;5023569;28;20691;-67
2023/12/01 00:36:33;;;;;;;10.32;9.63;;;;;;;5.72;100.00;93802.06;5026757;28;20234;-67
2023/12/01 00:38:58;;;;;;;10.25;9.25;;;;;;;5.73;100.00;93793.25;5009760;28;20116;-67
2023/12/01 00:41:24;;;;;;;11.90;11.00;;;;;;;5.69;100.00;93799.78;5024453;28;20058;-67
2023/12/01 00:43:50;;;;;;;13.57;12.48;;;;;;;5.68;100.00;93805.16;5023032;28;20042;-67
2023/12/01 00:46:15;;;;;;;15.43;13.85;;;;;;;5.67;100.00;93804.34;5024057;28;20487;-67
2023/12/01 00:48:40;;;;;;;37.80;25.88;;;;;;;5.65;100.00;93815.91;5027093;28;20029;-67
2023/12/01 00:51:14;;;;;;;16.35;14.80;;;;;;;5.72;100.00;93812.53;5024462;28;20102;-67
2023/12/01 00:53:39;;;;;;;10.02;9.32;;;;;;;5.73;100.00;93819.38;5022681;28;20093;-67
2023/12/01 00:56:05;;;;;;;9.73;9.02;;;;;;;5.76;100.00;93826.09;5027003;28;20084;-67
2023/12/01 00:58:30;;;;;;;11.88;10.98;;;;;;;5.70;100.00;93826.69;5026874;28;20033;-67
2023/12/01 01:00:56;;;;;;;11.00;10.10;;;;;;;5.69;100.00;93827.66;5023379;28;20105;-67
2023/12/01 01:03:21;;;;;;;11.52;10.32;;;;;;;5.69;100.00;93825.88;5024796;28;20029;-67
2023/12/01 01:05:47;;;;;;;12.25;11.35;;;;;;;5.65;100.00;93827.19;5016970;28;20431;-67
2023/12/01 01:08:12;;;;;;;10.57;9.75;;;;;;;5.66;100.00;93828.81;5026537;28;20111;-67
2023/12/01 01:10:37;;;;;;;11.63;10.82;;;;;;;5.68;100.00;93831.25;5020292;28;20026;-67
2023/12/01 01:13:03;;;;;;;12.25;11.25;;;;;;;5.64;100.00;93830.78;5029105;28;20041;-67
2023/12/01 01:15:29;;;;;;;10.43;9.55;;;;;;;5.63;100.00;93833.53;5027854;28;20511;-67
2023/12/01 01:17:54;;;;;;;10.18;9.27;;;;;;;5.63;100.00;93836.13;5028157;28;20076;-66
2023/12/01 01:20:20;;;;;;;15.40;14.15;;;;;;;5.63;100.00;93831.72;5028497;28;20148;-66
2023/12/01 01:22:45;;;;;;;13.02;12.02;;;;;;;5.68;100.00;93816.44;5034097;28;20026;-66
2023/12/01 01:25:10;;;;;;;12.77;11.80;;;;;;;5.68;100.00;93813.81;5029699;28;20036;-66
2023/12/01 01:27:36;;;;;;;12.88;11.98;;;;;;;5.66;100.00;93821.00;5023308;28;20392;-66
2023/12/01 01:30:01;;;;;;;12.13;11.23;;;;;;;5.66;100.00;93828.81;5026297;28;20037;-66
2023/12/01 01:32:27;;;;;;;12.75;11.65;;;;;;;5.66;100.00;93841.03;5027015;28;20033;-66
2023/12/01 01:34:52;;;;;;;11.43;10.38;;;;;;;5.65;100.00;93844.63;5028891;28;20029;-66
2023/12/01 01:37:17;;;;;;;248.60;127.43;;;;;;;5.62;100.00;93843.16;5026735;28;20765;-66
2023/12/01 01:39:43;;;;;;;202.73;106.85;;;;;;;5.59;100.00;93849.50;5034176;28;20025;-66
2023/12/01 01:42:08;;;;;;;183.63;123.25;;;;;;;5.60;100.00;93863.38;5026968;28;20033;-66
2023/12/01 01:44:33;;;;;;;73.55;49.70;;;;;;;5.59;100.00;93859.97;5027413;28;20095;-66
2023/12/01 01:46:59;;;;;;;22.52;16.90;;;;;;;5.58;100.00;93847.88;5031130;28;20458;-66
2023/12/01 01:49:26;;;;;;;13.20;12.10;;;;;;;5.60;100.00;93858.16;5024983;28;20586;-66
2023/12/01 01:51:55;;;;;;;10.05;9.45;;;;;;;5.62;100.00;93848.38;5030603;28;20034;-66
2023/12/01 01:54:24;;;;;;;9.23;8.63;;;;;;;5.67;100.00;93848.72;5027621;28;20072;-65
2023/12/01 01:56:51;;;;;;;6.88;6.38;;;;;;;5.66;100.00;93844.50;5024635;28;20399;-65
2023/12/01 01:59:20;;;;;;;23.73;18.65;;;;;;;5.69;100.00;93844.16;5035242;28;20698;-65
2023/12/01 02:01:46;;;;;;;10.70;9.60;;;;;;;5.68;100.00;93855.59;5027936;28;20025;-65
2023/12/01 02:04:11;;;;;;;11.25;9.95;;;;;;;5.69;100.00;93856.38;5021197;28;20081;-65
2023/12/01 02:06:37;;;;;;;9.88;8.90;;;;;;;5.67;100.00;93856.56;5025755;28;20033;-65
2023/12/01 02:09:03;;;;;;;271.40;154.85;;;;;;;5.68;100.00;93833.88;5040545;28;20037;-65
2023/12/01 02:11:28;;;;;;;95.25;56.58;;;;;;;5.66;100.00;93834.03;5024459;28;20030;-65
2023/12/01 02:13:54;;;;;;;37.83;30.42;;;;;;;5.71;100.00;93842.22;5023448;28;20034;-65
2023/12/01 02:16:19;;;;;;;14.23;13.02;;;;;;;5.71;100.00;93842.22;5027713;28;20015;-65
2023/12/01 02:18:45;;;;;;;12.40;11.30;;;;;;;5.70;100.00;93824.91;5029116;28;20030;-65
2023/12/01 02:21:11;;;;;;;143.80;84.22;;;;;;;5.69;100.00;93825.88;5026062;28;20029;-65
2023/12/01 02:23:36;;;;;;;12.55;11.45;;;;;;;5.71;100.00;93834.38;5021103;28;20108;-65
2023/12/01 02:26:02;;;;;;;5.82;5.53;;;;;;;5.73;100.00;93827.22;5032970;28;20032;-65
2023/12/01 02:28:27;;;;;;;8.80;8.00;;;;;;;5.74;100.00;93822.78;5027473;28;20049;-65
2023/12/01 02:30:55;;;;;;;11.60;10.60;;;;;;;5.74;100.00;93810.56;5028802;28;20030;-65
2023/12/01 02:33:21;;;;;;;9.80;9.07;;;;;;;5.74;100.00;93805.34;5030767;28;20497;-65
2023/12/01 02:35:53;;;;;;;6.97;6.38;;;;;;;5.76;100.00;93805.19;5028684;28;20156;-65
2023/12/01 02:38:19;;;;;;;5.72;5.32;;;;;;;5.74;100.00;93807.94;5026802;28;20570;-65
2023/12/01 02:40:51;;;;;;;12.27;11.38;;;;;;;5.77;100.00;93798.16;5030254;28;20018;-65
2023/12/01 02:43:18;;;;;;;9.85;9.05;;;;;;;5.77;100.00;93798.16;5024366;28;20084;-65
2023/12/01 02:45:44;;;;;;;21.00;19.25;;;;;;;5.76;100.00;93786.91;5029439;28;20034;-65
2023/12/01 02:48:10;;;;;;;15.02;13.73;;;;;;;5.74;100.00;93787.06;5025002;28;20057;-65
2023/12/01 02:50:36;;;;;;;11.27;10.38;;;;;;;5.77;100.00;93779.88;5023392;28;20032;-65
2023/12/01 02:53:04;;;;;;;6.03;5.63;;;;;;;5.78;100.00;93784.97;5031584;28;20050;-65
2023/12/01 02:55:31;;;;;;;8.95;8.45;;;;;;;5.79;100.00;93783.16;5031805;28;20053;-65
2023/12/01 02:57:57;;;;;;;13.75;12.75;;;;;;;5.80;100.00;93783.00;5028940;28;20041;-65
2023/12/01 03:00:22;;;;;;;11.15;10.35;;;;;;;5.81;100.00;93778.59;5031571;28;20025;-65
2023/12/01 03:02:53;;;;;;;10.55;9.82;;;;;;;5.80;100.00;93776.94;5025765;28;20029;-65
2023/12/01 03:05:19;;;;;;;7.88;7.38;;;;;;;5.79;100.00;93767.47;5028634;28;20029;-65
2023/12/01 03:07:45;;;;;;;7.32;6.82;;;;;;;5.80;100.00;93766.50;5033287;28;20112;-65
2023/12/01 03:10:12;;;;;;;5.00;4.63;;;;;;;5.79;100.00;93759.66;5025008;28;20120;-65
2023/12/01 03:12:39;;;;;;;7.18;6.47;;;;;;;5.80;100.00;93761.28;5028384;28;20029;-65
2023/12/01 03:15:10;;;;;;;8.05;7.35;;;;;;;5.81;100.00;93760.31;5029126;28;20037;-65
2023/12/01 03:17:37;;;;;;;5.32;5.03;;;;;;;5.85;100.00;93766.84;5027760;28;20037;-65
2023/12/01 03:20:10;;;;;;;14.00;8.43;;;;;;;5.87;100.00;93776.16;5022056;28;20029;-65
2023/12/01 03:22:36;;;;;;;12.20;9.02;;;;;;;5.89;100.00;93776.00;5026332;28;20412;-65
2023/12/01 03:25:02;;;;;;;10.43;7.97;;;;;;;5.90;100.00;93735.84;5031334;28;20041;-65
2023/12/01 03:27:28;;;;;;;8.98;8.05;;;;;;;5.88;100.00;93738.63;5030714;28;20037;-65
2023/12/01 03:29:54;;;;;;;8.30;7.55;;;;;;;5.88;100.00;93732.59;5030294;28;20042;-65
2023/12/01 03:32:19;;;;;;;12.52;11.20;;;;;;;5.91;100.00;93732.25;5025883;28;20030;-65
2023/12/01 03:34:45;;;;;;;22.88;17.67;;;;;;;5.90;100.00;93741.06;5019181;28;20029;-66
2023/12/01 03:37:10;;;;;;;19.08;10.90;;;;;;;5.92;100.00;93744.34;5020686;28;20033;-65
2023/12/01 03:39:35;;;;;;;14.25;11.10;;;;;;;5.91;100.00;93747.94;5027288;28;20105;-65
2023/12/01 03:42:02;;;;;;;16.67;12.65;;;;;;;5.91;100.00;93753.16;5029767;28;20477;-65
2023/12/01 03:44:28;;;;;;;12.63;10.75;;;;;;;5.91;100.00;93753.16;5029437;28;20036;-65
2023/12/01 03:46:54;;;;;;;7.78;7.03;;;;;;;5.90;100.00;93751.53;5026072;28;20033;-65
2023/12/01 03:49:19;;;;;;;8.95;8.05;;;;;;;5.91;100.00;93752.31;5022830;28;20032;-65
2023/12/01 03:51:44;;;;;;;13.30;6.78;;;;;;;5.90;100.00;93751.53;5041436;28;20050;-65
2023/12/01 03:54:10;;;;;;;10.65;9.85;;;;;;;5.93;100.00;93750.38;5024649;28;20115;-65
2023/12/01 03:56:37;;;;;;;11.63;10.82;;;;;;;5.91;100.00;93737.47;5029085;28;20410;-65
2023/12/01 03:59:03;;;;;;;4.57;4.28;;;;;;;5.89;100.00;93739.44;5022517;28;20017;-65
2023/12/01 04:16:03;;;;;;;9.52;8.73;;;;;;;5.85;100.00;93697.16;5030305;28;20040;-65
2023/12/01 04:18:29;;;;;;;9.32;8.50;;;;;;;5.81;100.00;93687.19;5023153;28;20117;-65
2023/12/01 04:20:57;;;;;;;7.75;7.15;;;;;;;5.79;100.00;93695.19;5027494;28;20030;-65
2023/12/01 04:23:22;;;;;;;8.02;7.30;;;;;;;5.82;100.00;93691.44;5027715;28;20104;-65
2023/12/01 04:25:48;;;;;;;6.05;5.60;;;;;;;5.81;100.00;93701.06;5024953;28;20049;-65
2023/12/01 04:28:14;;;;;;;5.68;5.22;;;;;;;5.81;100.00;93702.84;5024427;28;20030;-65
2023/12/01 04:30:40;;;;;;;5.70;5.30;;;;;;;5.82;100.00;93707.09;5030500;28;20059;-65
2023/12/01 04:33:06;;;;;;;7.75;7.05;;;;;;;5.78;100.00;93709.22;5022456;28;20076;-65
2023/12/01 04:35:33;;;;;;;11.23;9.00;;;;;;;5.78;100.00;93724.06;5029872;28;20029;-65
2023/12/01 04:38:03;;;;;;;10.70;9.70;;;;;;;5.80;100.00;93740.38;5021507;28;20030;-65
2023/12/01 04:40:29;;;;;;;10.50;9.60;;;;;;;5.82;100.00;93741.88;5029133;28;20021;-65
2023/12/01 04:42:56;;;;;;;9.77;8.98;;;;;;;5.85;100.00;93749.38;5021873;28;20022;-65
2023/12/01 04:45:24;;;;;;;7.75;7.15;;;;;;;5.85;100.00;93753.78;5030722;28;20080;-65
2023/12/01 04:47:51;;;;;;;6.90;6.28;;;;;;;5.86;100.00;93755.44;5024838;28;20025;-65
2023/12/01 04:50:21;;;;;;;6.88;6.32;;;;;;;5.85;100.00;93752.00;5019476;28;20026;-65
2023/12/01 04:52:48;;;;;;;10.57;9.63;;;;;;;5.84;100.00;93757.38;5021449;28;20051;-65
2023/12/01 04:55:15;;;;;;;16.50;15.00;;;;;;;5.85;100.00;93761.59;5023514;28;20501;-65
2023/12/01 04:57:42;;;;;;;18.30;16.50;;;;;;;5.85;100.00;93764.22;5027009;28;20502;-65
2023/12/01 05:00:19;;;;;;;15.77;14.35;;;;;;;5.86;100.00;93771.09;5023948;28;20032;-66
2023/12/01 05:02:55;;;;;;;15.52;14.13;;;;;;;5.86;100.00;93782.34;5028156;28;20038;-65
2023/12/01 05:05:21;;;;;;;;;;;;;;;5.84;100.00;93773.88;5026111;28;20132;-65
2023/12/01 05:07:51;;;;;;;10.20;9.20;;;;;;;5.84;100.00;93779.09;5033194;28;20318;-66
2023/12/01 05:10:18;;;;;;;13.70;12.50;;;;;;;5.85;100.00;93774.66;5024766;28;20033;-66
2023/12/01 05:12:45;;;;;;;9.52;8.75;;;;;;;5.85;100.00;93764.22;5031686;28;20040;-65
2023/12/01 05:15:15;;;;;;;8.93;8.13;;;;;;;5.88;100.00;93758.69;5024741;28;20030;-66
2023/12/01 05:17:48;;;;;;;8.95;8.25;;;;;;;5.88;100.00;93738.63;5028182;28;20021;-65
2023/12/01 05:20:15;;;;;;;6.95;6.35;;;;;;;5.88;100.00;93727.38;5023736;28;20029;-65
2023/12/01 05:23:05;;;;;;;6.90;6.18;;;;;;;5.83;100.00;93725.22;5024036;28;20026;-65
2023/12/01 05:25:34;;;;;;;6.28;5.82;;;;;;;5.88;100.00;93715.09;5030251;28;20458;-65
2023/12/01 05:28:01;;;;;;;9.18;8.48;;;;;;;5.91;100.00;93713.97;5029386;28;20045;-66
2023/12/01 05:30:28;;;;;;;9.15;8.35;;;;;;;5.91;100.00;93720.97;5025708;28;20030;-66
2023/12/01 05:32:55;;;;;;;8.77;8.07;;;;;;;5.90;100.00;93722.78;5027457;28;20092;-66
2023/12/01 05:35:21;;;;;;;7.82;7.22;;;;;;;5.90;100.00;93719.34;5025959;28;20064;-66
2023/12/01 05:37:51;;;;;;;6.80;6.20;;;;;;;5.87;100.00;93720.50;5025395;28;20018;-66
2023/12/01 05:40:28;;;;;;;6.88;6.38;;;;;;;5.84;100.00;93721.63;5024812;28;20034;-66
2023/12/01 05:42:55;;;;;;;6.05;5.65;;;;;;;5.83;100.00;93716.56;5025244;28;20581;-66
2023/12/01 05:45:22;;;;;;;5.78;5.38;;;;;;;5.86;100.00;93724.91;5021136;28;20034;-66
2023/12/01 05:47:49;;;;;;;8.20;6.68;;;;;;;5.89;100.00;93718.53;5026352;28;20021;-65
2023/12/01 05:50:20;;;;;;;6.65;6.25;;;;;;;5.95;100.00;93717.91;5023987;28;20041;-66
2023/12/01 05:52:46;;;;;;;11.25;10.35;;;;;;;5.99;100.00;93713.16;5027509;28;20053;-66
2023/12/01 05:55:14;;;;;;;12.77;11.68;;;;;;;6.05;100.00;93715.16;5026712;28;20483;-66
2023/12/01 05:57:46;;;;;;;7.32;6.55;;;;;;;6.09;100.00;93723.50;5021078;28;20026;-66
2023/12/01 06:00:15;;;;;;;6.70;6.10;;;;;;;6.05;100.00;93724.78;5031917;28;20025;-65
2023/12/01 06:02:43;;;;;;;4.82;4.53;;;;;;;6.18;100.00;93725.13;5024260;28;20615;-66
2023/12/01 06:05:09;;;;;;;4.65;4.40;;;;;;;6.10;100.00;93719.91;5024923;28;20026;-66
2023/12/01 06:07:36;;;;;;;3.72;3.50;;;;;;;6.04;100.00;93725.75;5027480;28;20033;-66
2023/12/01 06:10:03;;;;;;;3.45;3.15;;;;;;;6.04;100.00;93728.38;5032108;28;20168;-66
2023/12/01 06:12:29;;;;;;;2.65;2.53;;;;;;;6.05;100.00;93730.84;5027356;28;20026;-66
2023/12/01 06:14:54;;;;;;;2.92;2.83;;;;;;;6.08;100.00;93734.91;5022342;28;20037;-66
2023/12/01 06:17:20;;;;;;;3.30;3.00;;;;;;;6.10;100.00;93730.34;5029607;28;20022;-66
2023/12/01 06:19:45;;;;;;;2.78;2.58;;;;;;;6.14;100.00;93753.34;5024180;28;20049;-66
2023/12/01 06:22:11;;;;;;;2.17;2.08;;;;;;;6.15;100.00;93757.59;5031341;28;20060;-66
2023/12/01 06:24:36;;;;;;;1.95;1.85;;;;;;;6.28;100.00;93762.34;5028031;28;20049;-66
2023/12/01 06:27:04;;;;;;;2.10;2.00;;;;;;;6.20;100.00;93767.56;5024601;28;20037;-66
2023/12/01 06:29:30;;;;;;;2.63;2.53;;;;;;;6.15;100.00;93783.72;5032933;28;20022;-65
2023/12/01 06:31:56;;;;;;;2.00;2.00;;;;;;;6.20;100.00;93778.03;5029510;28;20036;-65
2023/12/01 06:34:21;;;;;;;2.05;1.98;;;;;;;6.14;100.00;93797.78;5028801;28;20064;-66
2023/12/01 06:36:46;;;;;;;2.40;2.30;;;;;;;6.15;100.00;93803.84;5026205;28;20063;-66
2023/12/01 06:39:12;;;;;;;2.60;2.50;;;;;;;6.18;100.00;93800.06;5032000;28;20033;-66
2023/12/01 06:41:38;;;;;;;1.95;1.85;;;;;;;6.10;100.00;93806.91;5026969;28;20044;-65
2023/12/01 06:44:04;;;;;;;2.60;2.50;;;;;;;6.07;100.00;93811.63;5026285;28;20033;-66
2023/12/01 06:46:30;;;;;;;3.10;2.92;;;;;;;6.12;100.00;93852.00;5028966;28;20085;-66
2023/12/01 06:48:55;;;;;;;2.35;2.20;;;;;;;6.03;100.00;93876.47;5026483;28;20614;-67
2023/12/01 06:51:21;;;;;;;2.05;1.95;;;;;;;5.99;100.00;93894.22;5023043;28;20022;-66
2023/12/01 06:53:46;;;;;;;2.38;2.20;;;;;;;5.95;100.00;93898.13;5030798;28;20029;-64
2023/12/01 06:56:11;;;;;;;4.45;4.05;;;;;;;5.92;100.00;93903.66;5029456;28;20032;-66
2023/12/01 06:58:37;;;;;;;4.60;4.25;;;;;;;5.90;100.00;93904.78;5028760;28;20052;-67
2023/12/01 07:01:02;;;;;;;3.92;3.63;;;;;;;5.83;100.00;93910.66;5025345;28;20025;-67
2023/12/01 07:03:29;;;;;;;3.80;3.42;;;;;;;5.86;100.00;93909.53;5009783;28;20426;-67
2023/12/01 07:05:55;;;;;;;3.90;3.67;;;;;;;5.87;100.00;93913.78;5018958;28;20025;-66
2023/12/01 07:08:21;;;;;;;3.28;3.10;;;;;;;5.91;100.00;93929.94;5021801;28;20032;-66
2023/12/01 07:10:46;;;;;;;3.35;3.15;;;;;;;5.83;100.00;93928.94;5027921;28;20021;-67
2023/12/01 07:13:11;;;;;;;3.78;3.47;;;;;;;5.81;100.00;93928.28;5027639;28;20473;-68
2023/12/01 07:15:37;;;;;;;3.10;2.90;;;;;;;5.83;100.00;93931.53;5021591;28;20021;-67
2023/12/01 07:18:04;;;;;;;7.63;7.03;;;;;;;5.80;100.00;93925.81;5033374;28;20036;-65
2023/12/01 07:20:33;;;;;;;3.38;2.90;;;;;;;5.85;100.00;93931.38;5020815;28;20101;-65
2023/12/01 07:22:59;;;;;;;15.38;14.27;;;;;;;5.80;100.00;93931.03;5028605;28;20121;-65
2023/12/01 07:25:25;;;;;;;4.28;3.88;;;;;;;5.76;100.00;93930.53;5027491;28;20033;-65
2023/12/01 07:28:02;;;;;;;3.13;2.92;;;;;;;5.74;100.00;93935.91;5026437;28;20021;-66
2023/12/01 07:30:28;;;;;;;2.55;2.45;;;;;;;5.73;100.00;93941.28;5022537;28;20105;-66
2023/12/01 07:32:55;;;;;;;3.38;3.17;;;;;;;5.70;100.00;93942.41;5021226;28;20111;-67
2023/12/01 07:35:20;;;;;;;4.60;4.20;;;;;;;5.64;100.00;93932.59;5023932;28;20113;-66
2023/12/01 07:37:47;;;;;;;6.63;4.43;;;;;;;5.65;100.00;93939.47;5025588;28;20113;-67
2023/12/01 07:40:19;;;;;;;5.15;4.63;;;;;;;5.62;100.00;93938.94;5021774;28;20024;-68
2023/12/01 07:42:46;;;;;;;6.13;5.63;;;;;;;5.64;100.00;93935.22;5031811;28;20021;-67
2023/12/01 07:45:14;;;;;;;6.78;6.30;;;;;;;5.65;100.00;93931.63;5021739;28;20598;-66
2023/12/01 07:47:39;;;;;;;4.97;4.68;;;;;;;5.64;100.00;93924.75;5026519;28;20363;-67
2023/12/01 07:50:05;;;;;;;4.30;4.00;;;;;;;5.71;100.00;93910.09;5022378;28;20121;-67
2023/12/01 07:52:32;;;;;;;4.72;4.32;;;;;;;5.77;100.00;93910.44;5021680;28;20133;-67
2023/12/01 07:54:58;;;;;;;4.88;4.45;;;;;;;5.73;100.00;93912.53;5019302;28;20044;-67
2023/12/01 07:57:23;;;;;;;7.82;5.90;;;;;;;5.77;100.00;93916.50;5026657;28;20037;-67
2023/12/01 07:59:48;;;;;;;7.88;7.07;;;;;;;5.77;100.00;93905.22;5026356;28;20079;-66
2023/12/01 08:02:14;;;;;;;7.30;6.70;;;;;;;5.74;100.00;93893.28;5021822;28;20034;-66
2023/12/01 08:04:40;;;;;;;6.80;6.30;;;;;;;5.77;100.00;93897.41;5016933;28;20037;-66
2023/12/01 08:07:07;;;;;;;4.70;4.30;;;;;;;5.73;100.00;93883.81;5018010;28;20469;-66
2023/12/01 08:09:33;;;;;;;3.75;3.55;;;;;;;5.72;100.00;93890.03;5027291;28;20099;-66
2023/12/01 08:11:59;;;;;;;4.57;3.80;;;;;;;5.72;100.00;93901.28;5022475;28;20067;-66
2023/12/01 08:14:27;;;;;;;4.57;4.28;;;;;;;5.76;100.00;93920.09;5024645;28;20040;-67
2023/12/01 08:16:52;;;;;;;3.65;3.45;;;;;;;5.65;100.00;93929.00;5024858;28;20032;-67
2023/12/01 08:19:18;;;;;;;3.03;2.83;;;;;;;5.66;100.00;93933.25;5023060;28;20512;-67
2023/12/01 08:21:44;;;;;;;2.53;2.33;;;;;;;5.63;100.00;93948.41;5020002;28;20052;-66
2023/12/01 08:24:10;;;;;;;2.75;2.55;;;;;;;5.62;100.00;93947.56;5024884;28;20019;-67
2023/12/01 08:26:36;;;;;;;2.70;2.50;;;;;;;5.61;100.00;93937.31;5024976;28;20513;-66
2023/12/01 08:29:02;;;;;;;3.05;2.95;;;;;;;5.61;100.00;93930.28;5027003;28;20397;-66
2023/12/01 08:31:27;;;;;;;2.42;2.33;;;;;;;5.59;100.00;93938.28;5023099;28;20025;-66
2023/12/01 08:33:53;;;;;;;2.63;2.53;;;;;;;5.57;100.00;93942.84;5019506;28;20129;-66
2023/12/01 08:36:18;;;;;;;2.30;2.20;;;;;;;5.58;100.00;93957.53;5023583;28;20060;-67
2023/12/01 08:38:44;;;;;;;2.70;2.60;;;;;;;5.55;100.00;93957.00;5026229;28;20029;-67
2023/12/01 08:41:09;;;;;;;2.33;2.22;;;;;;;5.51;100.00;93960.91;5026122;28;20409;-67
2023/12/01 08:43:35;;;;;;;2.47;2.38;;;;;;;5.55;100.00;93970.06;5024592;28;20029;-67
2023/12/01 08:46:00;;;;;;;3.65;3.45;;;;;;;5.54;100.00;93961.41;5021457;28;20029;-67
2023/12/01 08:48:25;;;;;;;4.43;4.13;;;;;;;5.54;100.00;93971.03;5020154;28;20048;-67
2023/12/01 08:50:51;;;;;;;4.22;4.03;;;;;;;5.53;100.00;93975.44;5025088;28;20037;-66
2023/12/01 08:53:17;;;;;;;3.80;3.60;;;;;;;5.57;100.00;93984.59;5021333;28;20053;-67
2023/12/01 08:55:42;;;;;;;4.95;4.65;;;;;;;5.58;100.00;93977.56;5023531;28;20018;-67
2023/12/01 08:58:07;;;;;;;2.58;2.47;;;;;;;5.60;100.00;93978.25;5020739;28;20041;-67
2023/12/01 09:00:34;;;;;;;3.45;3.15;;;;;;;5.61;100.00;93982.50;5020247;28;20101;-67
2023/12/01 09:03:00;;;;;;;3.03;2.92;;;;;;;5.62;100.00;93985.94;5028112;28;20037;-67
2023/12/01 09:05:25;;;;;;;4.00;2.90;;;;;;;5.63;100.00;93990.97;5010010;28;20562;-67
2023/12/01 09:07:50;;;;;;;2.35;2.25;;;;;;;5.64;100.00;93989.22;5021081;28;20029;-67
2023/12/01 09:10:16;;;;;;;2.72;2.53;;;;;;;5.66;100.00;93995.94;5021829;28;20109;-67
2023/12/01 09:12:43;;;;;;;2.80;2.60;;;;;;;5.66;100.00;93988.09;5024310;28;20037;-66
2023/12/01 09:15:10;;;;;;;2.55;2.40;;;;;;;5.68;100.00;93978.31;5021593;28;20030;-66
2023/12/01 09:17:35;;;;;;;4.53;2.40;;;;;;;5.77;100.00;93980.97;5021751;28;20026;-66
2023/12/01 09:20:01;;;;;;;1.90;1.80;;;;;;;5.74;100.00;93977.69;5023154;28;20156;-67
2023/12/01 09:22:26;;;;;;;142.05;15.95;;;;;;;5.74;100.00;93963.78;5024977;28;20053;-66
2023/12/01 09:24:51;;;;;;;106.07;11.82;;;;;;;5.74;100.00;93961.19;5024737;28;20045;-66
2023/12/01 09:27:17;;;;;;;176.98;17.17;;;;;;;5.72;100.00;93968.34;5022723;28;20056;-66
2023/12/01 09:29:42;;;;;;;107.90;10.43;;;;;;;5.72;100.00;93969.19;5022242;28;20028;-67
2023/12/01 09:32:08;;;;;;;10.85;3.10;;;;;;;5.70;100.00;93976.34;5027792;28;20025;-67
2023/12/01 09:34:33;;;;;;;55.75;6.93;;;;;;;5.69;100.00;93972.13;5041838;28;20083;-66
2023/12/01 09:36:59;;;;;;;5.03;3.40;;;;;;;5.67;100.00;93981.06;5026816;28;20021;-66
2023/12/01 09:39:24;;;;;;;33.28;6.88;;;;;;;5.65;100.00;93989.06;5025244;28;20057;-67
2023/12/01 09:41:51;;;;;;;11.98;4.55;;;;;;;5.64;100.00;93995.25;5029416;28;20025;-67
2023/12/01 09:44:16;;;;;;;31.40;6.18;;;;;;;5.65;100.00;93999.50;5028201;28;20055;-66
2023/12/01 09:46:43;;;;;;;24.17;6.93;;;;;;;5.68;100.00;94003.59;5023273;28;20112;-67
2023/12/01 09:49:09;;;;;;;8.98;7.78;;;;;;;5.69;100.00;94000.84;5028611;28;20036;-67
2023/12/01 09:51:36;;;;;;;15.52;10.43;;;;;;;5.74;100.00;94009.03;5025676;28;20037;-67
2023/12/01 09:54:02;;;;;;;11.73;8.07;;;;;;;5.71;100.00;94013.72;5028057;28;20061;-67
2023/12/01 09:56:28;;;;;;;10.60;6.65;;;;;;;5.71;100.00;94018.94;5027986;28;20120;-67
2023/12/01 09:58:57;;;;;;;12.73;10.43;;;;;;;5.68;100.00;94016.63;5025053;28;20025;-66
2023/12/01 10:01:26;;;;;;;11.55;10.35;;;;;;;5.64;100.00;94017.94;5030238;28;20108;-67
2023/12/01 10:03:52;;;;;;;11.05;7.68;;;;;;;5.65;100.00;94019.56;5025811;28;20029;-66
2023/12/01 10:06:18;;;;;;;16.73;7.88;;;;;;;5.71;100.00;94014.56;5028098;28;20022;-66
2023/12/01 10:08:44;;;;;;;9.57;7.82;;;;;;;5.68;100.00;94004.41;5030982;28;20014;-67
2023/12/01 10:11:24;;;;;;;6.00;5.40;;;;;;;5.76;100.00;94008.88;5020380;28;20498;-67
2023/12/01 10:13:51;;;;;;;3.92;3.63;;;;;;;5.77;100.00;93996.63;5022075;28;20156;-66
2023/12/01 10:16:17;;;;;;;4.68;2.58;;;;;;;5.74;100.00;93979.47;5022653;28;20026;-67
2023/12/01 10:19:00;;;;;;;3.95;3.50;;;;;;;5.84;100.00;93976.75;5022727;28;20025;-67
2023/12/01 10:21:40;;;;;;;5.82;4.10;;;;;;;5.72;100.00;93971.81;5037592;28;20489;-66
2023/12/01 10:24:15;;;;;;;4.80;3.63;;;;;;;5.73;100.00;93970.00;5022715;28;20026;-67
2023/12/01 10:26:42;;;;;;;3.50;3.30;;;;;;;5.74;100.00;93961.19;5024927;28;20030;-66
2023/12/01 10:29:29;;;;;;;3.40;3.10;;;;;;;5.76;100.00;93953.22;5028310;28;20017;-67
2023/12/01 10:32:04;;;;;;;4.78;3.42;;;;;;;5.72;100.00;93963.13;5026013;28;20490;-67
2023/12/01 10:34:30;;;;;;;4.22;3.80;;;;;;;5.74;100.00;93971.63;5032117;28;20029;-67
2023/12/01 10:36:55;;;;;;;5.47;5.00;;;;;;;5.67;100.00;93954.94;5029104;28;20032;-66
2023/12/01 10:39:27;;;;;;;6.32;5.82;;;;;;;5.58;100.00;93943.63;5019671;28;20026;-67
2023/12/01 10:41:54;;;;;;;7.63;6.82;;;;;;;5.56;100.00;93943.81;5028476;28;20126;-67
2023/12/01 10:44:25;;;;;;;4.07;3.78;;;;;;;5.56;100.00;93942.97;5022294;28;20841;-66
2023/12/01 10:46:53;;;;;;;4.20;3.90;;;;;;;5.58;100.00;93959.31;5023788;28;20107;-66
2023/12/01 10:49:19;;;;;;;4.65;4.35;;;;;;;5.61;100.00;93955.56;5023916;28;20057;-66
2023/12/01 10:51:46;;;;;;;14.65;13.13;;;;;;;5.55;100.00;93954.38;5027162;28;20450;-67
2023/12/01 10:54:15;;;;;;;8.00;7.18;;;;;;;5.43;100.00;93957.28;5024111;28;20116;-66
2023/12/01 10:57:23;;;;;;;3.90;3.60;;;;;;;5.54;100.00;93950.16;5023813;28;20025;-66
2023/12/01 10:59:52;;;;;;;4.50;4.20;;;;;;;5.41;100.00;93956.56;5024132;28;20042;-66
2023/12/01 11:02:21;;;;;;;5.50;5.05;;;;;;;5.41;100.00;93956.56;5041659;28;20034;-66
2023/12/01 11:04:47;;;;;;;5.40;5.00;;;;;;;5.40;100.00;93946.31;5023073;28;20499;-67
2023/12/01 11:07:49;;;;;;;6.75;5.85;;;;;;;5.43;100.00;93928.56;5026487;28;20032;-66
2023/12/01 11:10:23;;;;;;;3.60;3.30;;;;;;;5.48;100.00;93919.44;5028148;28;20042;-66
2023/12/01 11:12:52;;;;;;;3.00;2.80;;;;;;;5.36;100.00;93919.69;5024286;28;20087;-67
2023/12/01 11:15:26;;;;;;;3.55;3.25;;;;;;;5.30;100.00;93913.31;5025300;28;20536;-66
2023/12/01 11:17:52;;;;;;;3.80;3.50;;;;;;;5.34;100.00;93907.78;5024626;28;20037;-66
2023/12/01 11:20:29;;;;;;;9.55;8.48;;;;;;;5.27;100.00;93891.91;5025859;28;20029;-67
2023/12/01 11:23:15;;;;;;;7.05;6.35;;;;;;;5.43;100.00;93870.31;5027406;28;20674;-66
2023/12/01 11:25:48;;;;;;;10.80;8.57;;;;;;;5.40;100.00;93873.22;5026276;28;20030;-66
2023/12/01 11:28:43;;;;;;;8.52;6.90;;;;;;;5.40;100.00;93852.34;5023896;28;20115;-66
2023/12/01 11:33:57;;;;;;;5.40;4.95;;;;;;;5.32;100.00;93858.34;5026582;28;20021;-66
2023/12/01 11:36:23;;;;;;;6.25;5.75;;;;;;;5.24;100.00;93858.31;5024954;28;20080;-66
2023/12/01 11:39:10;;;;;;;5.07;4.78;;;;;;;5.16;100.00;93849.44;5019949;28;20125;-67
2023/12/01 11:41:58;;;;;;;5.75;5.25;;;;;;;5.21;100.00;93849.00;5027223;28;20034;-66
2023/12/01 11:44:26;;;;;;;4.07;3.78;;;;;;;5.10;100.00;93837.03;5016657;28;20143;-66
2023/12/01 11:46:56;;;;;;;7.25;6.40;;;;;;;5.18;100.00;93835.41;5027340;28;20397;-66